Flight Track Log - Related Links

Times and Time Zones

All times are in EDT time to prevent confusion due to time zone crossing. See the WBR2628 flight status page for this flight to view local times or setup timezone preferences in your user account.

Time Position Orientation Groundspeed Altitude Reporting Facility
EDT Latitude Longitude Course Direction KTS MPH feet Rate Location/Type
Wed 01:09:45 PM 38.7333 -90.3333 57° Northeast 95 109 1,100  Level Gateway (St. Louis) TRACON
Wed 01:10:39 PM 38.7500 -90.3000 57° Northeast 106 122 1,800 842 Climbing Gateway (St. Louis) TRACON
Wed 01:11:39 PM 38.7833 -90.3000 360° North 112 129 2,700 1,000 Climbing Gateway (St. Louis) TRACON
Wed 01:12:09 PM 38.7925 -90.3025 348° North 111 128 3,300 913 Climbing Kansas City Center
Wed 01:13:11 PM 38.8244 -90.3075 353° North 114 131 4,100 774 Climbing Kansas City Center
Wed 01:14:13 PM 38.8567 -90.3106 356° North 115 132 4,900 823 Climbing Kansas City Center
Wed 01:15:15 PM 38.8917 -90.3094 North 119 137 5,800 774 Climbing Kansas City Center
Wed 01:16:17 PM 38.9253 -90.3228 343° North 124 143 6,500 726 Climbing Kansas City Center
Wed 01:17:19 PM 38.9603 -90.3403 339° North 133 153 7,300 726 Climbing Kansas City Center
Wed 01:18:21 PM 39.0033 -90.3614 339° North 137 158 8,000 677 Climbing Kansas City Center
Wed 01:19:23 PM 39.0422 -90.3808 339° North 144 166 8,700 677 Climbing Kansas City Center
Wed 01:20:25 PM 39.0794 -90.4014 337° Northwest 146 168 9,400 581 Climbing Kansas City Center
Wed 01:21:27 PM 39.1178 -90.4206 339° North 146 168 9,900 290 Climbing Kansas City Center
Wed 01:22:29 PM 39.1597 -90.4414 339° North 153 176 10,000  Climbing Kansas City Center
Wed 01:23:32 PM 39.2150 -90.4708 338° Northwest 169 194 9,900 -48 Descending Kansas City Center
Wed 01:24:34 PM 39.2600 -90.4922 340° North 173 199 9,900 48 Level Kansas City Center
Wed 01:25:36 PM 39.3028 -90.5133 339° North 168 193 10,000 48 Climbing Kansas City Center
Wed 01:26:38 PM 39.3456 -90.5314 342° North 164 189 10,000  Level Kansas City Center
Wed 01:27:40 PM 39.3886 -90.5522 339° North 164 189 10,000  Level Kansas City Center
Wed 01:28:42 PM 39.4319 -90.5733 339° North 166 191 10,000  Level Kansas City Center
Wed 01:29:44 PM 39.4867 -90.5853 350° North 168 193 10,000  Level Kansas City Center
Wed 01:30:46 PM 39.5331 -90.5908 355° North 168 193 10,000  Level Kansas City Center
Wed 01:31:48 PM 39.5794 -90.5978 353° North 167 192 10,000  Level Kansas City Center
Wed 01:32:50 PM 39.6258 -90.6058 352° North 169 194 10,000  Level Kansas City Center
Wed 01:33:52 PM 39.6714 -90.6128 353° North 167 192 10,000  Level Kansas City Center
Wed 01:34:54 PM 39.7169 -90.6211 352° North 166 191 10,000  Level Kansas City Center
Wed 01:35:56 PM 39.7644 -90.6283 353° North 166 191 10,000  Level Kansas City Center
Wed 01:36:58 PM 39.8189 -90.6364 354° North 165 190 10,000  Level Kansas City Center
Wed 01:38:00 PM 39.8633 -90.6478 349° North 163 188 10,000  Level Kansas City Center
Wed 01:39:02 PM 39.9050 -90.6714 337° Northwest 163 188 10,000  Level Kansas City Center
Wed 01:40:04 PM 39.9464 -90.6933 338° Northwest 161 185 10,000  Level Kansas City Center
Wed 01:41:06 PM 39.9872 -90.7142 339° North 158 182 10,000  Level Kansas City Center
Wed 01:42:08 PM 40.0283 -90.7358 338° Northwest 159 183 10,000  Level Kansas City Center
Wed 01:43:10 PM 40.0711 -90.7567 340° North 162 186 10,000  Level Kansas City Center
Wed 01:44:12 PM 40.1233 -90.7839 338° Northwest 165 190 10,000  Level Kansas City Center
Wed 01:44:42 PM 40.1419 -90.7936 338° Northwest 165 190 10,000 -130 Level Chicago Center
Wed 01:45:44 PM 40.1817 -90.8150 338° Northwest 159 183 9,800 -242 Descending Chicago Center
Wed 01:46:46 PM 40.2231 -90.8356 339° North 162 186 9,500 -290 Descending Chicago Center
Wed 01:47:48 PM 40.2656 -90.8575 338° Northwest 164 189 9,200 -432 Descending Chicago Center
Wed 01:48:51 PM 40.3150 -90.8853 337° Northwest 160 184 8,600 -511 Descending Chicago Center
Wed 01:49:22 PM 40.3319 -90.8944 338° Northwest 161 185 8,400 -516 Descending Kansas City Center
Wed 01:50:24 PM 40.3733 -90.9161 338° Northwest 162 186 7,800 -527 Descending Kansas City Center
Wed 01:50:53 PM 40.3986 -90.9289 339° North 161 185 7,600 -462 Descending Chicago Center
Wed 01:51:55 PM 40.4408 -90.9494 340° North 161 185 7,100 -484 Descending Chicago Center
Wed 01:52:57 PM 40.4822 -90.9725 337° Northwest 160 184 6,600 -435 Descending Chicago Center
Wed 01:53:59 PM 40.5247 -90.9917 341° North 160 184 6,200 -484 Descending Chicago Center
Wed 01:55:01 PM 40.5636 -91.0122 338° Northwest 156 180 5,600 -532 Descending Chicago Center
Wed 01:56:03 PM 40.6108 -91.0400 336° Northwest 154 177 5,100 -532 Descending Chicago Center
Wed 01:57:05 PM 40.6492 -91.0675 331° Northwest 156 180 4,500 -484 Descending Chicago Center
Wed 01:58:07 PM 40.6856 -91.0964 329° Northwest 155 178 4,100 -629 Descending Chicago Center
Wed 01:59:09 PM 40.7189 -91.1294 323° Northwest 152 175 3,200 -726 Descending Chicago Center
Wed 02:00:11 PM 40.7547 -91.1619 326° Northwest 153 176 2,600 -581 Descending Chicago Center
Wed 02:02:00 PM 40.7667 -91.1167 339° North  Level FlightAware Approximate

Login

Don't have an account? Register now (free) for customized features, flight alerts, and more!